Stevensville, MT

4:41 AM MST on February 11, 2016 (GMT -0700)
South Stevensville | | Change Station
CLOSE
Current Station
Personal Weather Station
Location: Stevensville, MT
Elevation: 3579 ft
Nearby Weather Stations

Elev 3579 ft 46.47 °N, 114.06 °W | Updated 32 seconds ago

Mostly Cloudy
Mostly Cloudy
40.1 °F
Feels Like 40 °F
N
0.9
Wind Variable Wind from SE
Gusts 2.5 mph

Today
High -- | Low -- °F
--% Chance of Precip.
Yesterday
High -- | Low -- °F
Precip. -- in
Pressure 30.35 in
Visibility 9.0 miles
Clouds Mostly Cloudy 5500 ft
Windchill 40 °F
Dew Point 29 °F
Humidity 64%
Rainfall 0.00 in
Snow Depth Not available.
7:45 AM 5:54 PM
Waxing Crescent, 11% visible
METAR KMSO 111053Z AUTO 00000KT 9SM BKN055 01/M01 A3027 RMK AO2 SLP275 T00111011
Pressure 30.35 in
Visibility 9.0 miles
Clouds Mostly Cloudy 5500 ft
Windchill 40 °F
Dew Point 29 °F
Humidity 64%
Rainfall 0.00 in
Snow Depth Not available.
7:45 AM 5:54 PM
Waxing Crescent, 11% visible
METAR KMSO 111053Z AUTO 00000KT 9SM BKN055 01/M01 A3027 RMK AO2 SLP275 T00111011

10-Day Weather Forecast

Almanac

Astronomy

Feb. 11, 2016 Rise Set
Actual Time
Civil Twilight
Nautical Twilight
Astronomical Twilight
Moon
Length of Visible Light
Length of Day
Tomorrow will be .
, % of the Moon is Illuminated

Today's Extremes

State Highs State Lows

Community

WunderPhotos

Upload Photos

1,892,030 photos uploaded!

WunderBlog® & News

Nearby

Air Quality

  Air Quality AQ Index Pollutant
Not available.

Snow Depth

Station Depth Elevation

Earthquake Activity

City Distance Mag. Time & Date
Minimum magnitude displayed is 2.5.

Coastal Water Temperatures

Place Temperature

Stations

Nearby Weather Stations

Station Location Temp. Windchill Dew Point Humidity Wind Precip. Elev Updated Type
                   

Watches & Warnings

There are currently no watches in effect.